Time;durP1;ratioP1;P1;durP2;ratioP2;P2;SDS_P1;SDS_P2;PMS_P1;PMS_P2;Temp;Humidity;BMP_temperature;BMP_pressure;BME280_temperature;BME280_humidity;BME280_pressure;Samples;Min_cycle;Max_cycle;Signal;HPM_P1;HPM_P2
2022/03/03 00:00:49;;;;;;;5.90;3.42;;;22.30;42.80;;;;;;4998417;28;20046;-68
2022/03/03 00:03:14;;;;;;;6.82;3.10;;;22.30;42.80;;;;;;4999318;28;20125;-65
2022/03/03 00:05:40;;;;;;;5.57;3.67;;;22.20;42.80;;;;;;5000711;28;20046;-69
2022/03/03 00:08:06;;;;;;;4.68;3.00;;;22.30;42.80;;;;;;4998094;28;20482;-67
2022/03/03 00:10:31;;;;;;;5.85;3.30;;;22.20;42.70;;;;;;5011345;28;20049;-68
2022/03/03 00:12:57;;;;;;;4.55;2.90;;;22.20;42.70;;;;;;4998664;28;20452;-67
2022/03/03 00:15:23;;;;;;;5.60;3.35;;;22.20;42.70;;;;;;5015831;28;20405;-64
2022/03/03 00:17:48;;;;;;;5.78;3.22;;;22.20;43.30;;;;;;4999121;28;20026;-67
2022/03/03 00:20:14;;;;;;;6.90;3.70;;;22.20;42.70;;;;;;4998773;28;20033;-67
2022/03/03 00:22:40;;;;;;;6.03;3.40;;;22.20;42.80;;;;;;4999346;28;20105;-65
2022/03/03 00:25:05;;;;;;;5.38;3.35;;;22.10;42.80;;;;;;4996099;28;20030;-66
2022/03/03 00:27:31;;;;;;;5.32;3.10;;;22.10;42.80;;;;;;4999931;28;20107;-68
2022/03/03 00:29:57;;;;;;;6.03;3.25;;;22.10;42.80;;;;;;4999038;28;20532;-64
2022/03/03 00:32:23;;;;;;;4.63;2.90;;;22.10;42.80;;;;;;4999006;28;20038;-65
2022/03/03 00:34:48;;;;;;;4.78;3.10;;;22.10;42.70;;;;;;4999392;28;20049;-67
2022/03/03 00:37:14;;;;;;;5.57;3.10;;;22.00;42.70;;;;;;4995769;28;20045;-70
2022/03/03 00:39:40;;;;;;;4.60;2.92;;;22.00;42.70;;;;;;4995700;28;20562;-67
2022/03/03 00:42:06;;;;;;;3.95;2.90;;;22.00;42.70;;;;;;5003153;28;20079;-67
2022/03/03 00:44:31;;;;;;;4.78;2.80;;;22.00;42.70;;;;;;4998779;28;20038;-69
2022/03/03 00:46:57;;;;;;;4.65;2.90;;;22.00;42.70;;;;;;5012308;28;20475;-66
2022/03/03 00:49:23;;;;;;;3.97;2.55;;;22.00;42.70;;;;;;4998750;28;20122;-65
2022/03/03 00:51:49;;;;;;;4.57;2.97;;;22.00;42.70;;;;;;5000241;28;20017;-67
2022/03/03 00:54:14;;;;;;;4.38;2.72;;;21.90;42.80;;;;;;5011994;28;20573;-65
2022/03/03 00:56:40;;;;;;;4.78;2.60;;;21.90;42.70;;;;;;4996855;28;20026;-65
2022/03/03 00:59:06;;;;;;;4.38;2.55;;;21.90;42.80;;;;;;4998930;28;20042;-66
2022/03/03 01:01:31;;;;;;;4.47;2.80;;;21.90;42.80;;;;;;4998529;28;20900;-66
2022/03/03 01:03:57;;;;;;;3.75;2.40;;;21.90;42.80;;;;;;5003062;28;20045;-67
2022/03/03 01:06:23;;;;;;;4.72;2.60;;;21.80;42.70;;;;;;5014071;28;20046;-68
2022/03/03 01:08:48;;;;;;;5.70;3.00;;;21.80;42.80;;;;;;4996938;28;20033;-65
2022/03/03 01:11:14;;;;;;;4.82;2.75;;;21.80;42.80;;;;;;4997509;28;20046;-65
2022/03/03 01:13:40;;;;;;;4.53;2.67;;;21.80;42.80;;;;;;4999205;28;20171;-67
2022/03/03 01:16:05;;;;;;;3.88;2.40;;;21.80;42.80;;;;;;4996638;28;20034;-68
2022/03/03 01:18:31;;;;;;;4.30;2.40;;;21.80;42.80;;;;;;4997471;28;20022;-65
2022/03/03 01:20:57;;;;;;;4.93;2.90;;;21.80;42.80;;;;;;4995167;28;20049;-66
2022/03/03 01:23:23;;;;;;;3.53;2.30;;;21.80;42.80;;;;;;5008067;28;20049;-66
2022/03/03 01:25:49;;;;;;;3.70;2.22;;;21.70;42.80;;;;;;4995477;28;20025;-67
2022/03/03 01:28:14;;;;;;;3.80;2.35;;;21.70;42.80;;;;;;5013574;28;20022;-69
2022/03/03 01:30:40;;;;;;;3.90;2.53;;;21.70;42.80;;;;;;4996963;28;20490;-67
2022/03/03 01:33:06;;;;;;;4.03;2.45;;;21.70;42.80;;;;;;4998005;28;20037;-68
2022/03/03 01:35:33;;;;;;;3.42;2.38;;;21.70;42.80;;;;;;5013079;28;20057;-64
2022/03/03 01:37:58;;;;;;;3.83;2.05;;;21.70;42.90;;;;;;4998348;28;20029;-65
2022/03/03 01:40:25;;;;;;;4.13;2.60;;;21.70;42.90;;;;;;4990674;28;20114;-65
2022/03/03 01:42:51;;;;;;;3.17;2.10;;;21.60;42.80;;;;;;4998736;28;20105;-68
2022/03/03 01:45:17;;;;;;;3.88;2.38;;;21.60;42.90;;;;;;4996991;28;20021;-67
2022/03/03 01:47:43;;;;;;;3.85;2.30;;;21.60;42.90;;;;;;4997986;28;20842;-68
2022/03/03 01:50:09;;;;;;;4.45;2.60;;;21.50;42.80;;;;;;4997592;28;20030;-65
2022/03/03 01:52:34;;;;;;;4.72;2.53;;;21.50;42.80;;;;;;4998117;28;20553;-64
2022/03/03 01:55:00;;;;;;;3.78;2.40;;;21.60;42.90;;;;;;4997494;28;20049;-67
2022/03/03 01:57:27;;;;;;;3.60;2.40;;;21.60;42.90;;;;;;4996804;28;20037;-64
2022/03/03 01:59:53;;;;;;;4.03;2.10;;;21.50;42.80;;;;;;4998694;28;20080;-65
2022/03/03 02:02:20;;;;;;;3.55;2.15;;;21.50;42.80;;;;;;4997237;28;20046;-66
2022/03/03 02:04:46;;;;;;;3.42;2.25;;;21.50;42.90;;;;;;5012140;28;20099;-65
2022/03/03 02:07:12;;;;;;;3.90;2.38;;;21.50;42.90;;;;;;5002706;28;20026;-67
2022/03/03 02:09:40;;;;;;;3.55;2.17;;;21.50;43.00;;;;;;4997110;28;20072;-68
2022/03/03 02:12:06;;;;;;;3.88;2.50;;;21.40;42.80;;;;;;4996448;28;20046;-65
2022/03/03 02:14:46;;;;;;;3.97;2.20;;;21.50;42.90;;;;;;4996733;28;20068;-66
2022/03/03 02:17:12;;;;;;;3.38;2.00;;;21.50;42.90;;;;;;4997461;28;20552;-64
2022/03/03 02:19:44;;;;;;;3.40;2.25;;;21.40;42.90;;;;;;4997483;28;20061;-67
2022/03/03 02:22:10;;;;;;;3.30;2.15;;;21.40;42.90;;;;;;4997976;28;20053;-64
2022/03/03 02:24:39;;;;;;;3.30;2.08;;;21.40;42.90;;;;;;4996302;28;20152;-65
2022/03/03 02:27:06;;;;;;;3.30;2.20;;;21.40;42.90;;;;;;5011334;28;20068;-67
2022/03/03 02:29:33;;;;;;;3.60;2.10;;;21.40;43.00;;;;;;4996796;28;20030;-67
2022/03/03 02:31:59;;;;;;;3.40;2.03;;;21.40;43.00;;;;;;4995826;28;20545;-64
2022/03/03 02:34:25;;;;;;;4.47;2.33;;;21.40;43.00;;;;;;4996738;28;20129;-67
2022/03/03 02:36:50;;;;;;;2.90;1.90;;;21.40;42.90;;;;;;4995613;28;20501;-67
2022/03/03 02:39:16;;;;;;;3.40;2.17;;;21.40;43.00;;;;;;4994514;28;20026;-68
2022/03/03 02:41:42;;;;;;;3.40;2.10;;;21.40;43.00;;;;;;4995625;28;20050;-67
2022/03/03 02:44:08;;;;;;;2.92;2.10;;;21.30;42.90;;;;;;4997154;28;20026;-66
2022/03/03 02:46:33;;;;;;;3.00;2.08;;;21.30;43.00;;;;;;4996486;28;20034;-67
2022/03/03 02:48:59;;;;;;;3.10;2.08;;;21.30;43.00;;;;;;4994278;28;20041;-65
2022/03/03 02:51:24;;;;;;;3.17;2.08;;;21.30;43.00;;;;;;4997053;28;20414;-63
2022/03/03 02:53:50;;;;;;;3.15;1.95;;;21.30;43.00;;;;;;5008622;28;20026;-67
2022/03/03 02:56:16;;;;;;;4.15;2.30;;;21.30;43.00;;;;;;4994704;28;20165;-67
2022/03/03 02:58:42;;;;;;;3.10;2.10;;;21.30;43.00;;;;;;5009922;28;20583;-65
2022/03/03 03:01:10;;;;;;;3.50;2.28;;;21.30;43.50;;;;;;4996166;28;20430;-67
2022/03/03 03:03:36;;;;;;;4.07;2.47;;;21.20;43.00;;;;;;5001189;28;20099;-64
2022/03/03 03:06:01;;;;;;;3.45;2.08;;;21.30;43.00;;;;;;5012506;28;20077;-66
2022/03/03 03:08:27;;;;;;;2.97;2.08;;;21.20;43.00;;;;;;4993359;28;20224;-64
2022/03/03 03:10:53;;;;;;;3.08;2.00;;;21.20;43.00;;;;;;4994310;28;20030;-67
2022/03/03 03:13:19;;;;;;;3.70;2.20;;;21.20;43.00;;;;;;4996028;28;20487;-67
2022/03/03 03:15:45;;;;;;;3.25;2.03;;;21.20;43.00;;;;;;4995788;28;20099;-63
2022/03/03 03:18:16;;;;;;;3.00;1.80;;;21.20;43.00;;;;;;4996381;28;20045;-65
2022/03/03 03:20:44;;;;;;;2.97;1.92;;;21.20;43.00;;;;;;5011112;28;20030;-67
2022/03/03 03:23:11;;;;;;;3.22;1.90;;;21.20;43.00;;;;;;4992519;28;20363;-67
2022/03/03 03:25:37;;;;;;;3.03;2.05;;;21.20;43.10;;;;;;4995732;28;20018;-67
2022/03/03 03:28:07;;;;;;;3.45;2.22;;;21.20;43.00;;;;;;4996969;28;20084;-67
2022/03/03 03:30:33;;;;;;;3.55;2.30;;;21.20;43.10;;;;;;4995304;28;20057;-63
2022/03/03 03:32:58;;;;;;;3.83;2.15;;;21.10;43.00;;;;;;4997038;28;20073;-65
2022/03/03 03:35:24;;;;;;;3.33;1.90;;;21.10;43.00;;;;;;4995821;28;20556;-65
2022/03/03 03:37:51;;;;;;;3.38;2.10;;;21.10;43.00;;;;;;5000755;28;20054;-67
2022/03/03 03:40:17;;;;;;;3.25;2.15;;;21.10;43.10;;;;;;5008872;28;20145;-67
2022/03/03 03:42:43;;;;;;;3.42;2.00;;;21.10;43.00;;;;;;4995131;28;20391;-66
2022/03/03 03:45:10;;;;;;;3.28;2.08;;;21.10;43.00;;;;;;4996336;28;20042;-67
2022/03/03 03:47:37;;;;;;;3.47;2.05;;;21.10;43.10;;;;;;4990700;28;20454;-67
2022/03/03 03:50:08;;;;;;;2.95;1.70;;;21.10;43.10;;;;;;4994120;28;20433;-65
2022/03/03 03:52:35;;;;;;;3.83;2.15;;;21.10;43.10;;;;;;4996327;28;20026;-67
2022/03/03 03:55:01;;;;;;;3.45;2.50;;;21.10;43.10;;;;;;4990780;28;20058;-67
2022/03/03 03:57:27;;;;;;;4.25;2.03;;;21.10;43.10;;;;;;4992558;28;20022;-65
2022/03/03 03:59:52;;;;;;;3.20;1.90;;;21.10;43.10;;;;;;4993381;28;20520;-64
2022/03/03 04:02:18;;;;;;;3.25;1.90;;;21.10;43.20;;;;;;4996855;28;20124;-67
2022/03/03 04:04:44;;;;;;;3.03;1.95;;;21.10;43.20;;;;;;4997084;28;20480;-64
2022/03/03 04:07:09;;;;;;;2.45;1.60;;;21.10;43.20;;;;;;5010627;28;20025;-64
2022/03/03 04:09:35;;;;;;;3.22;1.90;;;21.00;43.10;;;;;;4993357;28;20065;-66
2022/03/03 04:12:02;;;;;;;3.33;2.10;;;21.00;43.10;;;;;;4992720;28;20019;-65
2022/03/03 04:14:28;;;;;;;3.13;1.83;;;21.00;43.20;;;;;;5009733;28;20048;-64
2022/03/03 04:16:53;;;;;;;2.95;1.90;;;21.00;43.20;;;;;;4994616;28;20030;-65
2022/03/03 04:19:19;;;;;;;2.75;1.60;;;21.00;43.20;;;;;;4994166;28;20113;-67
2022/03/03 04:21:44;;;;;;;3.63;2.03;;;21.00;43.20;;;;;;4998424;28;20049;-66
2022/03/03 04:24:11;;;;;;;2.92;1.95;;;21.00;43.20;;;;;;4996992;28;20034;-64
2022/03/03 04:26:36;;;;;;;2.63;1.70;;;20.90;43.10;;;;;;4997514;28;20050;-66
2022/03/03 04:29:03;;;;;;;2.60;1.63;;;21.00;43.20;;;;;;4997381;28;20392;-67
2022/03/03 04:31:29;;;;;;;2.72;1.90;;;20.90;43.20;;;;;;5003234;28;20045;-67
2022/03/03 04:33:55;;;;;;;2.72;1.70;;;20.90;43.20;;;;;;4999054;28;20419;-66
2022/03/03 04:36:21;;;;;;;3.28;1.70;;;20.90;43.20;;;;;;4999127;28;20038;-68
2022/03/03 04:38:50;;;;;;;3.05;1.83;;;20.90;43.20;;;;;;4997046;28;20064;-64
2022/03/03 04:41:16;;;;;;;3.08;1.90;;;20.90;43.20;;;;;;5010283;28;20696;-64
2022/03/03 04:43:41;;;;;;;3.55;1.88;;;20.90;43.30;;;;;;4997841;28;20034;-67
2022/03/03 04:46:07;;;;;;;3.20;1.92;;;20.90;43.30;;;;;;4996964;28;20041;-63
2022/03/03 04:48:32;;;;;;;2.80;1.80;;;20.90;43.30;;;;;;4997575;28;20490;-67
2022/03/03 04:50:58;;;;;;;2.50;1.75;;;20.90;43.30;;;;;;5013323;28;20180;-64
2022/03/03 04:53:25;;;;;;;2.70;1.70;;;20.90;43.30;;;;;;4994847;28;20375;-64
2022/03/03 04:55:51;;;;;;;2.80;1.80;;;20.90;43.30;;;;;;4997301;28;20053;-64
2022/03/03 04:58:17;;;;;;;4.13;2.10;;;20.90;43.30;;;;;;4997170;28;20363;-66
2022/03/03 05:00:43;;;;;;;2.33;1.50;;;20.90;43.30;;;;;;4996275;28;20069;-65
2022/03/03 05:03:08;;;;;;;3.05;1.70;;;20.90;43.30;;;;;;4998027;28;20033;-63
2022/03/03 05:05:34;;;;;;;2.33;1.50;;;20.90;43.30;;;;;;5013866;28;20034;-69
2022/03/03 05:07:59;;;;;;;3.20;1.70;;;20.90;43.30;;;;;;4996074;28;20039;-64
2022/03/03 05:10:25;;;;;;;2.80;1.65;;;20.80;43.30;;;;;;4997292;28;20022;-65
2022/03/03 05:12:51;;;;;;;2.35;1.55;;;20.80;43.30;;;;;;4996335;28;20390;-64
2022/03/03 05:15:17;;;;;;;3.00;1.70;;;20.80;43.30;;;;;;4996794;28;20463;-65
2022/03/03 05:17:42;;;;;;;2.05;1.48;;;20.80;43.30;;;;;;5012295;28;20041;-65
2022/03/03 05:20:09;;;;;;;2.33;1.65;;;20.80;43.30;;;;;;4993920;28;20026;-68
2022/03/03 05:22:34;;;;;;;2.90;1.60;;;20.80;43.40;;;;;;5013546;28;20079;-67
2022/03/03 05:25:01;;;;;;;2.28;1.48;;;20.80;43.30;;;;;;4996693;28;20034;-67
2022/03/03 05:27:27;;;;;;;2.20;1.58;;;20.80;43.30;;;;;;5011524;28;20041;-67
2022/03/03 05:29:53;;;;;;;2.42;1.70;;;20.80;43.30;;;;;;4996743;28;20034;-67
2022/03/03 05:32:19;;;;;;;2.58;1.60;;;20.80;43.40;;;;;;4993385;28;20045;-64
2022/03/03 05:34:44;;;;;;;2.50;1.50;;;20.80;43.90;;;;;;4997633;28;20134;-65
2022/03/03 05:37:10;;;;;;;2.40;1.50;;;20.80;43.40;;;;;;5011287;28;20202;-64
2022/03/03 05:39:36;;;;;;;2.42;1.50;;;20.70;43.40;;;;;;4995067;28;20029;-67
2022/03/03 05:42:03;;;;;;;2.72;1.58;;;20.80;43.40;;;;;;4995202;28;20030;-63
2022/03/03 05:44:28;;;;;;;2.30;1.50;;;20.70;43.40;;;;;;4997369;28;20483;-64
2022/03/03 05:46:55;;;;;;;2.33;1.50;;;20.70;43.40;;;;;;4996791;28;20038;-64
2022/03/03 05:49:22;;;;;;;2.40;1.30;;;20.70;43.40;;;;;;4996326;28;20406;-63
2022/03/03 05:51:48;;;;;;;2.47;1.50;;;20.70;43.80;;;;;;4998158;28;20102;-66
2022/03/03 05:54:13;;;;;;;1.80;1.30;;;20.70;43.40;;;;;;4997540;28;20156;-67
2022/03/03 05:56:45;;;;;;;2.20;1.40;;;20.70;43.40;;;;;;4995346;28;20402;-64
2022/03/03 05:59:14;;;;;;;2.72;1.52;;;20.70;43.40;;;;;;4995681;28;20037;-66
2022/03/03 06:01:42;;;;;;;3.25;1.45;;;20.70;43.40;;;;;;4997109;28;20042;-67
2022/03/03 06:04:12;;;;;;;2.50;1.63;;;20.70;43.40;;;;;;4996837;28;20100;-66
2022/03/03 06:06:41;;;;;;;2.78;1.55;;;20.70;43.40;;;;;;4998707;28;20140;-67
2022/03/03 06:09:14;;;;;;;2.08;1.40;;;20.70;43.40;;;;;;4995152;28;20026;-65
2022/03/03 06:11:47;;;;;;;2.40;1.45;;;20.70;43.40;;;;;;4995890;28;20033;-67
2022/03/03 06:14:19;;;;;;;2.30;1.42;;;20.70;43.40;;;;;;4997320;28;20129;-63
2022/03/03 06:16:45;;;;;;;2.33;1.50;;;20.70;43.40;;;;;;4997661;28;20101;-64
2022/03/03 06:19:11;;;;;;;2.58;1.63;;;20.70;43.40;;;;;;4995372;28;20030;-67
2022/03/03 06:21:37;;;;;;;2.60;1.70;;;20.70;43.50;;;;;;4996794;28;20375;-65
2022/03/03 06:24:03;;;;;;;2.60;1.40;;;20.70;43.50;;;;;;4993132;28;20041;-67
2022/03/03 06:26:28;;;;;;;2.53;1.65;;;20.70;43.50;;;;;;4996661;28;20108;-67
2022/03/03 06:28:54;;;;;;;2.58;1.60;;;20.70;43.50;;;;;;4994769;28;20054;-65
2022/03/03 06:31:20;;;;;;;2.80;1.70;;;20.70;43.50;;;;;;4997004;28;20042;-68
2022/03/03 06:33:46;;;;;;;2.10;1.48;;;20.60;43.50;;;;;;4998036;28;20034;-65
2022/03/03 06:36:11;;;;;;;2.45;1.58;;;20.60;43.50;;;;;;4995778;28;20597;-65
2022/03/03 06:38:37;;;;;;;2.78;1.60;;;20.60;43.50;;;;;;5010474;28;20042;-66
2022/03/03 06:41:05;;;;;;;2.83;1.60;;;20.60;43.50;;;;;;5009632;28;20605;-67
2022/03/03 06:43:31;;;;;;;2.78;1.60;;;20.60;43.50;;;;;;5010568;28;20034;-67
2022/03/03 06:45:57;;;;;;;2.13;1.40;;;20.60;43.50;;;;;;4996053;28;20025;-67
2022/03/03 06:48:24;;;;;;;2.30;1.52;;;20.60;43.60;;;;;;4998121;28;20029;-65
2022/03/03 06:50:53;;;;;;;3.58;1.60;;;20.60;43.60;;;;;;4996568;28;20021;-65
2022/03/03 06:53:26;;;;;;;3.00;1.80;;;20.60;43.60;;;;;;4994840;28;20091;-65
2022/03/03 06:55:54;;;;;;;2.72;1.52;;;20.60;43.60;;;;;;4994490;28;20026;-66
2022/03/03 06:58:24;;;;;;;2.63;1.60;;;20.50;43.60;;;;;;5001437;28;20083;-67
2022/03/03 07:00:51;;;;;;;;;;;20.50;43.60;;;;;;4995932;28;20278;-67
2022/03/03 07:03:17;;;;;;;2.13;1.40;;;20.50;43.60;;;;;;5001288;28;19917;-67
2022/03/03 07:05:42;;;;;;;2.63;1.50;;;20.50;43.60;;;;;;4996490;28;20018;-67
2022/03/03 07:08:10;;;;;;;2.40;1.42;;;20.50;43.60;;;;;;4995113;28;20061;-67
2022/03/03 07:10:37;;;;;;;2.45;1.40;;;20.50;43.70;;;;;;4994521;28;20081;-67
2022/03/03 07:13:02;;;;;;;1.67;1.27;;;20.50;43.70;;;;;;4995158;28;20120;-66
2022/03/03 07:15:28;;;;;;;2.40;1.60;;;20.50;43.70;;;;;;4995701;28;20133;-64
2022/03/03 07:18:02;;;;;;;3.90;1.67;;;20.50;44.20;;;;;;4996052;28;20040;-67
2022/03/03 07:20:47;;;;;;;2.90;1.60;;;20.50;43.70;;;;;;4995803;28;20120;-64
2022/03/03 07:23:26;;;;;;;2.42;1.63;;;20.50;43.70;;;;;;4994129;28;20025;-63
2022/03/03 07:25:54;;;;;;;2.70;1.48;;;20.40;43.70;;;;;;4993581;28;20030;-67
2022/03/03 07:28:21;;;;;;;1.98;1.40;;;20.50;43.70;;;;;;4996363;28;20105;-66
2022/03/03 07:30:49;;;;;;;2.33;1.50;;;20.40;43.70;;;;;;5031820;28;20045;-65
2022/03/03 07:34:03;;;;;;;2.67;1.50;;;20.40;43.70;;;;;;5035818;28;20032;-67
2022/03/03 07:36:34;;;;;;;2.53;1.58;;;20.40;43.70;;;;;;5013654;28;20529;-67
2022/03/03 07:39:02;;;;;;;2.60;1.73;;;20.40;43.60;;;;;;5015713;28;20022;-67
2022/03/03 07:41:29;;;;;;;3.42;1.70;;;20.40;43.60;;;;;;5033063;28;20025;-67
2022/03/03 07:43:56;;;;;;;2.10;1.30;;;20.40;43.50;;;;;;5034564;28;20046;-65
2022/03/03 07:46:23;;;;;;;2.22;1.50;;;20.40;43.50;;;;;;5035052;28;20033;-68
2022/03/03 07:48:51;;;;;;;3.20;1.40;;;20.40;43.50;;;;;;5034524;28;20056;-67
2022/03/03 07:51:18;;;;;;;2.13;1.38;;;20.40;43.50;;;;;;5035362;28;20028;-65
2022/03/03 07:53:43;;;;;;;2.50;1.50;;;20.40;43.40;;;;;;5017449;28;20179;-68
2022/03/03 07:56:12;;;;;;;2.30;1.40;;;20.40;43.40;;;;;;5037671;28;20561;-64
2022/03/03 07:58:45;;;;;;;3.27;1.60;;;20.40;43.90;;;;;;5022756;28;20025;-68
2022/03/03 08:01:14;;;;;;;2.72;1.63;;;20.40;43.40;;;;;;5039369;28;20741;-67
2022/03/03 08:03:45;;;;;;;2.53;1.60;;;20.40;43.30;;;;;;5039600;28;20025;-68
2022/03/03 08:06:13;;;;;;;2.47;1.67;;;20.40;43.30;;;;;;5037780;28;20117;-67
2022/03/03 08:08:40;;;;;;;3.00;1.77;;;20.40;43.30;;;;;;5038495;28;20115;-68
2022/03/03 08:11:07;;;;;;;2.63;1.73;;;20.40;43.80;;;;;;5018794;28;20028;-67
2022/03/03 08:13:34;;;;;;;3.00;1.67;;;20.40;43.30;;;;;;5039069;28;20026;-67
2022/03/03 08:16:00;;;;;;;3.20;1.88;;;20.40;43.30;;;;;;5039929;28;20469;-67
2022/03/03 08:18:35;;;;;;;2.47;1.67;;;20.40;43.40;;;;;;5035271;28;20159;-63
2022/03/03 08:21:02;;;;;;;3.50;1.90;;;20.40;43.40;;;;;;5035132;28;20043;-68
2022/03/03 08:23:30;;;;;;;3.00;1.60;;;20.40;43.40;;;;;;5016011;28;20101;-66
2022/03/03 08:25:56;;;;;;;2.45;1.50;;;20.40;43.40;;;;;;5030265;28;20091;-65
2022/03/03 08:28:24;;;;;;;2.55;1.67;;;20.40;43.50;;;;;;5034132;28;20041;-67
2022/03/03 08:31:03;;;;;;;3.15;1.75;;;20.40;43.50;;;;;;5020714;28;20060;-64
2022/03/03 08:34:02;;;;;;;2.97;1.40;;;20.40;43.60;;;;;;5034944;28;20780;-68
2022/03/03 08:36:45;;;;;;;2.92;1.70;;;20.40;43.70;;;;;;5035610;28;20059;-67
2022/03/03 08:39:14;;;;;;;3.15;1.88;;;20.40;43.80;;;;;;5030694;28;20036;-66
2022/03/03 08:41:40;;;;;;;3.10;1.70;;;20.40;44.00;;;;;;5033245;28;20036;-64
2022/03/03 08:44:08;;;;;;;4.18;1.75;;;20.50;44.20;;;;;;5031418;28;20310;-67
2022/03/03 08:46:36;;;;;;;3.00;1.70;;;20.40;44.20;;;;;;5036034;28;20025;-66
2022/03/03 08:49:05;;;;;;;2.67;1.70;;;20.40;44.40;;;;;;5035146;28;20034;-66
2022/03/03 08:51:31;;;;;;;3.92;1.70;;;20.40;44.40;;;;;;5037409;28;20131;-68
2022/03/03 08:53:57;;;;;;;3.35;1.90;;;20.40;44.50;;;;;;5035333;28;20106;-66
2022/03/03 08:56:23;;;;;;;2.80;1.70;;;20.50;44.60;;;;;;5036970;28;20041;-64
2022/03/03 08:58:49;;;;;;;3.67;1.80;;;20.50;44.60;;;;;;5039231;28;20156;-64
2022/03/03 09:01:15;;;;;;;2.92;1.75;;;20.50;44.60;;;;;;5040190;28;20123;-67
2022/03/03 09:03:43;;;;;;;3.50;1.90;;;20.50;44.70;;;;;;5039870;28;20090;-66
2022/03/03 09:06:13;;;;;;;3.25;1.70;;;20.50;44.80;;;;;;5037578;28;20168;-64
2022/03/03 09:08:38;;;;;;;3.20;1.65;;;20.50;44.80;;;;;;5033887;28;20064;-70
2022/03/03 09:11:04;;;;;;;5.18;1.88;;;20.50;45.00;;;;;;5032395;28;20132;-71
2022/03/03 09:13:30;;;;;;;3.72;1.90;;;20.50;44.90;;;;;;5013905;28;20469;-68
2022/03/03 09:15:56;;;;;;;3.50;1.95;;;20.50;45.20;;;;;;5033608;28;20386;-68
2022/03/03 09:18:22;;;;;;;4.75;2.20;;;20.60;45.20;;;;;;5030431;28;20048;-67
2022/03/03 09:20:47;;;;;;;3.42;1.77;;;20.70;45.10;;;;;;5031137;28;20184;-68
2022/03/03 09:23:13;;;;;;;3.28;1.90;;;20.80;45.00;;;;;;5029357;28;20762;-66
2022/03/03 09:25:39;;;;;;;4.80;2.20;;;20.90;44.80;;;;;;5030215;28;20033;-67
2022/03/03 09:28:06;;;;;;;3.20;2.05;;;21.10;44.60;;;;;;5032312;28;20480;-63
2022/03/03 09:30:32;;;;;;;3.92;2.20;;;21.20;44.30;;;;;;5029452;28;20031;-65
2022/03/03 09:32:58;;;;;;;4.20;2.42;;;21.30;44.10;;;;;;5033562;28;20075;-67
2022/03/03 09:35:25;;;;;;;3.72;2.20;;;21.40;44.00;;;;;;5034446;28;20111;-70
2022/03/03 09:37:51;;;;;;;6.20;2.30;;;21.40;43.80;;;;;;5030986;28;20116;-70
2022/03/03 09:40:17;;;;;;;3.50;2.00;;;21.50;43.70;;;;;;5029254;28;20132;-67
2022/03/03 09:42:58;;;;;;;3.35;1.98;;;21.50;43.80;;;;;;5031544;28;20186;-65
2022/03/03 09:45:24;;;;;;;3.80;2.17;;;21.50;43.80;;;;;;5032512;28;20025;-65
2022/03/03 09:47:53;;;;;;;4.20;2.10;;;21.40;43.80;;;;;;5030095;28;20112;-65
2022/03/03 09:50:19;;;;;;;4.07;2.67;;;21.50;44.00;;;;;;5033502;28;20457;-68
2022/03/03 09:52:45;;;;;;;4.72;2.60;;;21.60;44.20;;;;;;5031030;28;20055;-66
2022/03/03 09:55:11;;;;;;;5.22;2.70;;;21.70;43.90;;;;;;5031585;28;20025;-68
2022/03/03 09:57:36;;;;;;;4.43;2.40;;;21.90;43.60;;;;;;5031155;28;20040;-65
2022/03/03 10:00:07;;;;;;;4.07;2.65;;;22.10;43.40;;;;;;5031052;28;20041;-68
2022/03/03 10:02:32;;;;;;;5.50;2.60;;;22.30;42.80;;;;;;5031565;28;20040;-68
2022/03/03 10:04:58;;;;;;;4.45;2.80;;;22.40;42.50;;;;;;5032535;28;20032;-68
2022/03/03 10:07:25;;;;;;;5.78;2.75;;;22.60;42.20;;;;;;5032492;28;20107;-68
2022/03/03 10:10:02;;;;;;;4.55;2.70;;;22.70;42.00;;;;;;5028491;28;20044;-69
2022/03/03 10:12:39;;;;;;;4.38;2.60;;;22.80;41.80;;;;;;5031299;28;20571;-71
2022/03/03 10:15:05;;;;;;;3.80;2.58;;;22.90;41.50;;;;;;5030844;28;20034;-68
2022/03/03 10:17:37;;;;;;;4.57;2.58;;;23.00;41.30;;;;;;5031973;28;20072;-65
2022/03/03 10:20:05;;;;;;;4.35;2.70;;;23.10;41.10;;;;;;5030926;28;20056;-66
2022/03/03 10:22:41;;;;;;;4.57;2.70;;;23.20;40.90;;;;;;5029930;28;20037;-68
2022/03/03 10:25:09;;;;;;;4.53;2.60;;;23.30;40.80;;;;;;5028957;28;20430;-66
2022/03/03 10:27:34;;;;;;;3.42;2.30;;;23.30;40.80;;;;;;5027321;28;20514;-68
2022/03/03 10:30:02;;;;;;;2.72;1.90;;;23.30;40.90;;;;;;5024369;28;20119;-68
2022/03/03 10:32:28;;;;;;;4.80;2.08;;;23.20;40.80;;;;;;5031315;28;20040;-65
2022/03/03 10:35:00;;;;;;;4.13;2.17;;;23.20;40.80;;;;;;5032171;28;20345;-66
2022/03/03 10:37:26;;;;;;;4.70;2.33;;;23.20;40.90;;;;;;5034173;28;20705;-68
2022/03/03 10:40:00;;;;;;;3.55;2.30;;;23.20;40.90;;;;;;5030029;28;20137;-69
2022/03/03 10:42:26;;;;;;;3.90;2.40;;;23.20;41.00;;;;;;5033117;28;20049;-70
2022/03/03 10:45:11;;;;;;;3.60;2.10;;;23.20;41.00;;;;;;5032379;28;20041;-69
2022/03/03 10:47:37;;;;;;;3.40;2.38;;;23.20;41.00;;;;;;5033625;28;20018;-69
2022/03/03 10:50:04;;;;;;;4.78;2.08;;;23.20;40.90;;;;;;5014118;28;20110;-69
2022/03/03 10:52:35;;;;;;;3.97;2.20;;;23.20;40.90;;;;;;5033462;28;20048;-68
2022/03/03 10:55:10;;;;;;;3.88;2.30;;;23.20;40.90;;;;;;5030293;28;20025;-68
2022/03/03 10:57:45;;;;;;;3.88;2.50;;;23.20;40.90;;;;;;5033494;28;20719;-68
2022/03/03 11:00:38;;;;;;;3.70;2.30;;;23.20;40.70;;;;;;5027590;28;20572;-68
2022/03/03 11:03:04;;;;;;;4.03;2.50;;;23.20;40.80;;;;;;5015647;28;20037;-67
2022/03/03 11:05:31;;;;;;;3.42;2.15;;;23.20;40.80;;;;;;5032052;28;20604;-69
2022/03/03 11:07:57;;;;;;;4.07;2.30;;;23.20;40.70;;;;;;5029605;28;20576;-66
2022/03/03 11:10:25;;;;;;;3.83;2.40;;;23.20;40.80;;;;;;5029863;28;20465;-69
2022/03/03 11:12:51;;;;;;;4.75;2.45;;;23.20;40.70;;;;;;5034136;28;20036;-68
2022/03/03 11:15:19;;;;;;;3.83;2.20;;;23.20;40.70;;;;;;5030462;28;20029;-66
2022/03/03 11:17:47;;;;;;;4.10;2.50;;;23.10;40.80;;;;;;5032203;28;20098;-67
2022/03/03 11:20:15;;;;;;;4.38;2.17;;;23.10;40.70;;;;;;5031364;28;20114;-66
2022/03/03 11:22:42;;;;;;;3.72;2.40;;;23.10;40.70;;;;;;5029220;28;20028;-64
2022/03/03 11:25:12;;;;;;;3.40;2.10;;;23.10;40.80;;;;;;5031070;28;20039;-68
2022/03/03 11:27:41;;;;;;;4.20;2.30;;;23.10;40.80;;;;;;5031622;28;20047;-67
2022/03/03 11:30:16;;;;;;;3.60;2.40;;;23.10;40.80;;;;;;5034611;28;20033;-65
2022/03/03 11:32:43;;;;;;;2.97;1.98;;;23.10;40.80;;;;;;5039154;28;20392;-65
2022/03/03 11:35:14;;;;;;;4.85;2.20;;;23.10;40.90;;;;;;5039349;28;20107;-66
2022/03/03 11:37:45;;;;;;;4.45;2.00;;;23.10;40.90;;;;;;5038735;28;20035;-68
2022/03/03 11:40:18;;;;;;;3.97;2.40;;;23.10;40.90;;;;;;5036529;28;20144;-64
2022/03/03 11:42:53;;;;;;;3.53;2.30;;;23.00;40.90;;;;;;5038751;28;20048;-67
2022/03/03 11:45:34;;;;;;;3.25;2.03;;;23.00;40.90;;;;;;5038962;28;20123;-65
2022/03/03 11:48:19;;;;;;;3.63;1.95;;;23.00;41.10;;;;;;5038833;28;20032;-66
2022/03/03 11:50:45;;;;;;;3.03;2.00;;;23.00;41.10;;;;;;5039182;28;20100;-68
2022/03/03 11:53:11;;;;;;;3.20;2.25;;;22.90;41.10;;;;;;5036686;28;20035;-66
2022/03/03 11:55:43;;;;;;;2.88;1.95;;;23.00;41.20;;;;;;5037961;28;20561;-67
2022/03/03 11:58:10;;;;;;;3.60;2.00;;;22.90;41.20;;;;;;5038347;28;20032;-65
2022/03/03 12:00:47;;;;;;;4.25;2.42;;;22.90;41.20;;;;;;5031764;28;20132;-65
2022/03/03 12:03:15;;;;;;;4.63;2.17;;;22.90;41.30;;;;;;5037458;28;20069;-67
2022/03/03 12:05:43;;;;;;;3.67;1.90;;;22.90;41.30;;;;;;5034790;28;20099;-66
2022/03/03 12:08:12;;;;;;;3.67;2.10;;;22.90;41.40;;;;;;5032275;28;20040;-67
2022/03/03 12:10:56;;;;;;;3.38;1.92;;;22.90;41.40;;;;;;5037262;28;20090;-69
2022/03/03 12:13:27;;;;;;;3.58;1.83;;;22.90;41.40;;;;;;5043622;28;20036;-70
2022/03/03 12:16:21;;;;;;;4.20;2.10;;;22.90;41.50;;;;;;5045432;28;20540;-66
2022/03/03 12:19:06;;;;;;;3.65;2.05;;;22.90;41.50;;;;;;5044741;28;20122;-70
2022/03/03 12:21:43;;;;;;;3.70;2.30;;;22.90;41.50;;;;;;5038953;28;20056;-69
2022/03/03 12:24:17;;;;;;;4.82;2.03;;;22.90;41.60;;;;;;5038804;28;20047;-66
2022/03/03 12:26:55;;;;;;;4.28;2.08;;;22.90;41.60;;;;;;5036684;28;20028;-68
2022/03/03 12:29:34;;;;;;;3.83;1.80;;;22.90;41.70;;;;;;5031772;28;20029;-65
2022/03/03 12:32:28;;;;;;;2.63;1.80;;;22.80;41.70;;;;;;5035748;28;20155;-64
2022/03/03 12:35:02;;;;;;;3.05;1.80;;;22.90;41.70;;;;;;5035660;28;20041;-65
2022/03/03 12:37:30;;;;;;;4.65;1.70;;;22.80;41.70;;;;;;5024527;28;20853;-67
2022/03/03 12:40:00;;;;;;;4.20;1.95;;;22.80;41.80;;;;;;5035428;28;20056;-66
2022/03/03 12:42:28;;;;;;;3.10;1.60;;;22.80;41.80;;;;;;5035255;28;20039;-65
2022/03/03 12:44:59;;;;;;;2.92;1.70;;;22.80;41.80;;;;;;5032554;28;20091;-68
2022/03/03 12:47:37;;;;;;;2.95;1.85;;;22.80;41.80;;;;;;5032302;28;20021;-65
2022/03/03 12:50:22;;;;;;;2.75;1.70;;;22.80;41.80;;;;;;5015153;28;20061;-66
2022/03/03 12:52:59;;;;;;;2.75;1.70;;;22.80;41.80;;;;;;5014690;28;20245;-66